Time;durP1;ratioP1;P1;durP2;ratioP2;P2;SDS_P1;SDS_P2;PMS_P1;PMS_P2;Temp;Humidity;BMP_temperature;BMP_pressure;BME280_temperature;BME280_humidity;BME280_pressure;Samples;Min_cycle;Max_cycle;Signal;HPM_P1;HPM_P2
2021/10/08 00:01:58;;;;;;;6.22;2.50;;;;;;;15.19;62.23;100233.25;5074551;28;20480;-77
2021/10/08 00:04:24;;;;;;;5.63;2.92;;;;;;;14.61;62.37;100152.69;5074401;28;20028;-76
2021/10/08 00:06:49;;;;;;;7.40;2.85;;;;;;;15.08;62.59;100220.44;5074300;28;20034;-76
2021/10/08 00:09:15;;;;;;;5.90;3.30;;;;;;;15.10;62.47;100229.06;5074421;28;20021;-76
2021/10/08 00:11:41;;;;;;;6.28;3.30;;;;;;;15.13;62.45;100231.34;5074105;28;20489;-76
2021/10/08 00:14:07;;;;;;;6.93;3.40;;;;;;;14.92;62.55;100186.97;5074026;28;20028;-77
2021/10/08 00:16:32;;;;;;;3.72;2.60;;;;;;;14.86;62.49;100181.56;5074210;28;20032;-75
2021/10/08 00:18:58;;;;;;;3.63;2.72;;;;;;;15.08;62.15;100227.59;5074017;28;20024;-75
2021/10/08 00:21:23;;;;;;;7.07;3.00;;;;;;;15.08;62.56;100219.63;5073812;28;20024;-75
2021/10/08 00:23:50;;;;;;;7.22;3.38;;;;;;;15.09;62.69;100231.91;5073805;28;20086;-76
2021/10/08 00:26:16;;;;;;;7.20;3.78;;;;;;;15.12;62.86;100236.84;5073953;28;20473;-75
2021/10/08 00:28:41;;;;;;;5.25;2.95;;;;;;;14.64;62.67;100162.13;5073927;28;20032;-76
2021/10/08 00:31:07;;;;;;;6.35;3.08;;;;;;;15.06;62.82;100227.81;5073532;28;20052;-76
2021/10/08 00:33:32;;;;;;;7.60;3.10;;;;;;;14.60;62.97;100145.72;5073948;28;20033;-76
2021/10/08 00:35:58;;;;;;;6.00;3.10;;;;;;;15.05;62.78;100225.34;5073781;28;20046;-76
2021/10/08 00:38:23;;;;;;;8.35;3.60;;;;;;;15.05;62.73;100212.84;5073665;28;20041;-76
2021/10/08 00:40:48;;;;;;;6.07;3.17;;;;;;;15.08;62.79;100223.13;5072334;28;20062;-76
2021/10/08 00:43:18;;;;;;;6.40;3.60;;;;;;;15.08;62.80;100214.31;5073640;28;20039;-75
2021/10/08 00:45:44;;;;;;;6.45;2.92;;;;;;;15.05;62.66;100206.72;5073638;28;20029;-76
2021/10/08 00:48:10;;;;;;;5.57;3.10;;;;;;;14.69;62.74;100159.72;5073632;28;20028;-76
2021/10/08 00:50:42;;;;;;;8.30;3.45;;;;;;;15.02;62.71;100213.25;5073444;28;20056;-76
2021/10/08 00:53:08;;;;;;;6.50;3.08;;;;;;;14.92;62.97;100194.94;5073363;28;20098;-76
2021/10/08 00:55:35;;;;;;;6.70;3.00;;;;;;;14.99;62.46;100208.31;5073340;28;20485;-76
2021/10/08 00:58:01;;;;;;;3.10;2.45;;;;;;;14.90;62.85;100193.50;5073629;28;20085;-77
2021/10/08 01:00:27;;;;;;;7.15;3.38;;;;;;;14.99;63.05;100202.16;5073113;28;20036;-76
2021/10/08 01:02:52;;;;;;;4.13;2.90;;;;;;;14.97;62.88;100202.34;5071572;28;20425;-76
2021/10/08 01:05:18;;;;;;;5.22;2.88;;;;;;;14.89;62.83;100192.66;5072852;28;20025;-75
2021/10/08 01:07:43;;;;;;;5.82;3.03;;;;;;;14.72;63.01;100167.31;5072847;28;20029;-76
2021/10/08 01:10:09;;;;;;;7.20;2.83;;;;;;;14.89;63.47;100199.81;5071899;28;20051;-76
2021/10/08 01:12:35;;;;;;;3.65;2.72;;;;;;;14.87;63.15;100188.56;5073157;28;20060;-77
2021/10/08 01:15:01;;;;;;;3.15;2.75;;;;;;;14.79;63.18;100194.78;5073025;28;20028;-75
2021/10/08 01:17:26;;;;;;;4.47;3.40;;;;;;;14.67;62.97;100161.75;5073131;28;20017;-76
2021/10/08 01:19:52;;;;;;;4.18;2.70;;;;;;;14.62;63.21;100164.97;5072649;28;20044;-76
2021/10/08 01:22:17;;;;;;;4.00;2.75;;;;;;;14.73;63.16;100184.09;5072800;28;20470;-75
2021/10/08 01:24:43;;;;;;;5.20;2.85;;;;;;;14.78;63.33;100192.31;5072855;28;20079;-75
2021/10/08 01:27:09;;;;;;;4.18;2.95;;;;;;;14.76;63.33;100211.13;5072736;28;20040;-75
2021/10/08 01:29:50;;;;;;;4.10;2.47;;;;;;;14.66;63.27;100170.72;5072631;28;20059;-77
2021/10/08 01:32:15;;;;;;;5.50;3.00;;;;;;;14.76;63.41;100186.38;5072579;28;20079;-76
2021/10/08 01:34:41;;;;;;;4.93;2.83;;;;;;;14.62;63.30;100157.00;5072569;28;20678;-76
2021/10/08 01:37:07;;;;;;;5.57;2.60;;;;;;;14.77;63.27;100178.19;5072275;28;20059;-75
2021/10/08 01:39:32;;;;;;;4.43;3.10;;;;;;;14.76;63.29;100171.25;5072373;28;20031;-76
2021/10/08 01:41:58;;;;;;;5.22;2.95;;;;;;;14.79;63.14;100167.38;5072478;28;20089;-75
2021/10/08 01:44:23;;;;;;;5.75;3.15;;;;;;;14.78;63.34;100169.22;5071858;28;20039;-77
2021/10/08 01:46:50;;;;;;;5.53;2.30;;;;;;;14.62;63.49;100142.88;5072117;28;20489;-75
2021/10/08 01:49:16;;;;;;;5.57;2.85;;;;;;;14.79;63.45;100162.06;5072137;28;20627;-76
2021/10/08 01:51:41;;;;;;;5.25;2.65;;;;;;;14.77;63.35;100166.75;5072181;28;20107;-76
2021/10/08 01:54:07;;;;;;;4.95;2.30;;;;;;;14.53;63.17;100130.72;5072173;28;20028;-75
2021/10/08 01:56:32;;;;;;;3.92;2.25;;;;;;;14.75;63.47;100176.75;5072165;28;20101;-76
2021/10/08 01:58:58;;;;;;;4.25;2.50;;;;;;;14.76;63.25;100176.56;5072411;28;20052;-76
2021/10/08 02:01:24;;;;;;;6.22;2.55;;;;;;;14.18;63.48;100074.78;5072022;28;20032;-76
2021/10/08 02:03:51;;;;;;;5.05;2.33;;;;;;;14.74;63.88;100181.25;5071860;28;20028;-75
2021/10/08 02:06:17;;;;;;;3.65;2.42;;;;;;;14.74;63.89;100178.59;5072188;28;20062;-75
2021/10/08 02:08:42;;;;;;;3.92;2.10;;;;;;;14.62;63.98;100164.16;5070770;28;20455;-76
2021/10/08 02:11:08;;;;;;;4.82;2.30;;;;;;;14.66;64.02;100165.41;5071962;28;20020;-77
2021/10/08 02:13:33;;;;;;;2.50;2.10;;;;;;;14.68;64.38;100166.03;5071954;28;20028;-76
2021/10/08 02:15:58;;;;;;;4.05;2.00;;;;;;;14.13;64.43;100073.69;5071825;28;20054;-75
2021/10/08 02:18:24;;;;;;;3.47;1.85;;;;;;;14.62;64.64;100154.34;5071572;28;20034;-76
2021/10/08 02:20:49;;;;;;;5.20;2.25;;;;;;;14.66;64.54;100164.59;5071674;28;20448;-76
2021/10/08 02:23:15;;;;;;;3.10;2.13;;;;;;;14.13;64.73;100068.38;5071745;28;20036;-76
2021/10/08 02:25:40;;;;;;;6.22;2.22;;;;;;;14.69;65.05;100154.41;5071676;28;20048;-76
2021/10/08 02:28:05;;;;;;;1.83;1.63;;;;;;;14.67;64.78;100151.13;5071780;28;20476;-76
2021/10/08 02:30:31;;;;;;;2.67;1.70;;;;;;;14.68;64.81;100151.94;5071590;28;20024;-75
2021/10/08 02:32:57;;;;;;;3.72;1.95;;;;;;;14.62;64.98;100153.50;5071545;28;20032;-75
2021/10/08 02:35:22;;;;;;;2.72;1.80;;;;;;;14.44;65.18;100127.38;5071422;28;20416;-75
2021/10/08 02:37:48;;;;;;;6.30;2.08;;;;;;;14.62;65.24;100142.88;5071537;28;20029;-75
2021/10/08 02:40:13;;;;;;;2.90;1.70;;;;;;;14.63;65.26;100140.03;5071381;28;20516;-75
2021/10/08 02:42:39;;;;;;;4.75;1.98;;;;;;;14.63;65.28;100134.72;5071328;28;20054;-75
2021/10/08 02:45:05;;;;;;;3.40;1.77;;;;;;;14.50;65.50;100129.28;5071415;28;20032;-75
2021/10/08 02:47:30;;;;;;;2.60;1.73;;;;;;;14.59;65.53;100148.56;5071308;28;20063;-75
2021/10/08 02:49:55;;;;;;;2.35;1.60;;;;;;;14.01;65.53;100060.06;5071480;28;20478;-75
2021/10/08 02:52:21;;;;;;;1.85;1.60;;;;;;;14.54;65.69;100141.19;5071299;28;20024;-75
2021/10/08 02:54:46;;;;;;;2.22;1.80;;;;;;;14.33;65.58;100114.56;5071345;28;20129;-75
2021/10/08 02:57:12;;;;;;;3.80;2.03;;;;;;;14.28;65.60;100104.50;5071359;28;20497;-75
2021/10/08 02:59:39;;;;;;;4.53;2.13;;;;;;;14.00;65.63;100053.09;5071277;28;20028;-76
2021/10/08 03:02:04;;;;;;;3.63;2.28;;;;;;;14.50;65.61;100142.56;5071332;28;20112;-75
2021/10/08 03:04:30;;;;;;;2.83;2.30;;;;;;;14.47;65.73;100150.91;5071281;28;20099;-75
2021/10/08 03:06:56;;;;;;;2.70;2.25;;;;;;;14.39;65.78;100134.25;5071237;28;20481;-75
2021/10/08 03:09:22;;;;;;;8.40;2.30;;;;;;;14.27;65.76;100124.09;5071259;28;20078;-75
2021/10/08 03:11:48;;;;;;;5.07;2.45;;;;;;;14.45;66.04;100152.94;5071295;28;20038;-75
2021/10/08 03:14:13;;;;;;;2.45;2.03;;;;;;;14.46;66.10;100153.75;5071189;28;20020;-75
2021/10/08 03:16:38;;;;;;;5.25;2.33;;;;;;;14.05;65.93;100092.34;5071149;28;20025;-76
2021/10/08 03:19:04;;;;;;;4.18;2.63;;;;;;;14.46;65.95;100151.09;5071080;28;20024;-76
2021/10/08 03:21:30;;;;;;;5.32;2.00;;;;;;;14.33;66.40;100138.47;5070989;28;20025;-75
2021/10/08 03:23:55;;;;;;;2.97;1.75;;;;;;;14.31;66.50;100143.16;5071176;28;20051;-80
2021/10/08 03:26:21;;;;;;;3.03;1.83;;;;;;;14.21;66.49;100124.03;5071219;28;20409;-80
2021/10/08 03:28:46;;;;;;;4.63;1.92;;;;;;;14.40;66.38;100162.44;5071178;28;20416;-80
2021/10/08 03:31:13;;;;;;;3.70;2.13;;;;;;;13.86;66.62;100056.63;5070944;28;20412;-80
2021/10/08 03:33:38;;;;;;;6.05;2.20;;;;;;;14.20;66.51;100119.72;5070759;28;20020;-80
2021/10/08 03:36:05;;;;;;;4.75;2.30;;;;;;;14.41;66.65;100148.16;5071076;28;20032;-80
2021/10/08 03:38:32;;;;;;;5.50;2.25;;;;;;;13.61;66.38;100026.94;5070949;28;20020;-79
2021/10/08 03:43:23;;;;;;;4.45;2.30;;;;;;;14.19;66.45;100110.13;5070941;28;20493;-80
2021/10/08 03:45:49;;;;;;;7.72;2.53;;;;;;;14.44;66.14;100153.94;5070843;28;20028;-80
2021/10/08 03:50:57;;;;;;;4.95;2.15;;;;;;;14.40;66.19;100159.78;5070817;28;20033;-80
2021/10/08 03:53:22;;;;;;;7.00;2.28;;;;;;;14.46;66.18;100175.00;5070900;28;20056;-79
2021/10/08 03:55:48;;;;;;;7.57;2.10;;;;;;;14.46;66.16;100182.97;5070652;28;20516;-79
2021/10/08 03:58:13;;;;;;;5.32;2.00;;;;;;;14.48;66.14;100179.13;5070767;28;20021;-80
2021/10/08 04:00:39;;;;;;;8.07;2.53;;;;;;;14.45;66.19;100165.41;5070575;28;20108;-80
2021/10/08 04:03:04;;;;;;;6.50;2.20;;;;;;;14.40;65.69;100160.63;5070761;28;20027;-79
2021/10/08 04:05:30;;;;;;;4.22;2.00;;;;;;;14.25;66.25;100142.06;5070903;28;20032;-80
2021/10/08 04:07:55;;;;;;;4.32;2.13;;;;;;;14.46;66.07;100167.88;5074291;28;20021;-80
2021/10/08 04:10:20;;;;;;;3.58;2.10;;;;;;;13.41;65.96;99988.72;5074329;28;20413;-80
2021/10/08 04:12:46;;;;;;;4.82;2.72;;;;;;;13.77;65.80;100053.25;5074161;28;20029;-79
2021/10/08 04:15:11;;;;;;;4.30;2.17;;;;;;;14.37;65.90;100144.22;5074125;28;20118;-80
2021/10/08 04:17:37;;;;;;;5.65;2.15;;;;;;;14.48;65.97;100147.25;5074061;28;20028;-80
2021/10/08 04:20:03;;;;;;;4.03;2.40;;;;;;;14.59;65.71;100165.34;5073883;28;20103;-80
2021/10/08 04:22:28;;;;;;;8.40;2.78;;;;;;;14.61;65.79;100167.81;5073981;28;20039;-80
2021/10/08 04:24:53;;;;;;;6.18;2.60;;;;;;;14.02;65.62;100061.69;5073954;28;20500;-80
2021/10/08 04:27:19;;;;;;;5.80;2.50;;;;;;;14.43;65.71;100130.22;5073842;28;20032;-79
2021/10/08 04:29:44;;;;;;;2.50;2.30;;;;;;;14.53;65.74;100144.03;5073923;28;20390;-80
2021/10/08 04:32:09;;;;;;;4.10;2.30;;;;;;;14.40;66.45;100143.84;5073759;28;20104;-80
2021/10/08 04:34:35;;;;;;;6.80;2.63;;;;;;;13.65;65.97;100014.94;5073706;28;20028;-80
2021/10/08 04:37:00;;;;;;;4.43;2.53;;;;;;;14.03;65.92;100083.75;5073728;28;20492;-79
2021/10/08 04:39:26;;;;;;;5.10;2.85;;;;;;;14.52;66.02;100174.25;5073640;28;20028;-80
2021/10/08 04:41:51;;;;;;;9.05;3.83;;;;;;;14.49;65.78;100161.34;5073658;28;20043;-80
2021/10/08 04:44:17;;;;;;;6.78;3.17;;;;;;;14.52;65.64;100168.94;5072204;28;20027;-80
2021/10/08 04:46:42;;;;;;;7.05;3.22;;;;;;;14.35;65.83;100159.53;5072105;28;20052;-80
2021/10/08 04:49:08;;;;;;;8.27;3.28;;;;;;;14.10;65.76;100120.00;5073335;28;20036;-80
2021/10/08 04:51:33;;;;;;;5.95;2.97;;;;;;;14.15;65.94;100157.47;5073661;28;20017;-80
2021/10/08 04:53:59;;;;;;;6.40;3.60;;;;;;;14.46;65.50;100183.81;5073465;28;20032;-80
2021/10/08 04:56:24;;;;;;;7.53;3.72;;;;;;;13.35;65.42;100014.94;5073257;28;20475;-80
2021/10/08 04:58:49;;;;;;;8.85;3.42;;;;;;;14.40;65.39;100181.88;5073221;28;20039;-80
2021/10/08 05:01:15;;;;;;;10.40;3.42;;;;;;;14.25;65.21;100155.34;5073358;28;20028;-80
2021/10/08 05:03:41;;;;;;;6.18;3.08;;;;;;;14.47;65.29;100179.31;5073152;28;20412;-80
2021/10/08 05:06:06;;;;;;;5.35;3.25;;;;;;;14.44;65.12;100169.06;5073470;28;20073;-80
2021/10/08 05:08:32;;;;;;;8.93;3.60;;;;;;;14.32;65.32;100155.41;5073146;28;20040;-80
2021/10/08 05:10:57;;;;;;;7.03;3.28;;;;;;;14.32;65.18;100142.13;5073148;28;20025;-80
2021/10/08 05:13:23;;;;;;;11.15;3.22;;;;;;;14.23;64.95;100138.78;5073002;28;20099;-80
2021/10/08 05:15:48;;;;;;;6.35;2.90;;;;;;;14.13;64.89;100124.97;5073174;28;20043;-80
2021/10/08 05:18:13;;;;;;;8.63;3.10;;;;;;;14.08;64.64;100118.53;5071967;28;20497;-79
2021/10/08 05:20:39;;;;;;;2.95;2.17;;;;;;;14.48;64.55;100175.66;5072440;28;20505;-80
2021/10/08 05:23:05;;;;;;;8.55;2.95;;;;;;;14.13;64.60;100122.31;5072340;28;20459;-80
2021/10/08 05:25:30;;;;;;;4.38;2.00;;;;;;;14.35;64.14;100164.84;5072490;28;20417;-79
2021/10/08 05:27:56;;;;;;;7.65;2.67;;;;;;;14.50;64.26;100189.56;5072301;28;20061;-79
2021/10/08 05:30:21;;;;;;;4.35;2.55;;;;;;;14.48;63.99;100187.09;5072498;28;20111;-80
2021/10/08 05:32:47;;;;;;;5.05;2.40;;;;;;;14.41;63.94;100177.38;5072806;28;20078;-80
2021/10/08 05:35:13;;;;;;;8.02;2.83;;;;;;;13.31;63.97;100015.50;5072523;28;20055;-79
2021/10/08 05:37:38;;;;;;;7.30;3.33;;;;;;;13.86;64.08;100099.09;5071326;28;20086;-80
2021/10/08 05:40:05;;;;;;;8.63;2.95;;;;;;;14.45;63.89;100192.78;5072434;28;20028;-79
2021/10/08 05:42:31;;;;;;;8.02;2.97;;;;;;;13.40;63.79;100032.16;5072274;28;20107;-80
2021/10/08 05:44:59;;;;;;;7.97;3.10;;;;;;;14.08;63.74;100135.28;5072384;28;20541;-80
2021/10/08 05:47:24;;;;;;;10.75;3.80;;;;;;;13.67;63.54;100066.81;5064213;28;20026;-79
2021/10/08 05:49:50;;;;;;;7.72;4.20;;;;;;;14.34;63.67;100174.66;5070407;28;20478;-80
2021/10/08 05:52:15;;;;;;;9.23;3.63;;;;;;;14.45;63.55;100182.16;5054009;28;20028;-80
2021/10/08 05:54:41;;;;;;;8.40;4.88;;;;;;;14.37;63.50;100174.28;5065213;28;20390;-80
2021/10/08 05:57:08;;;;;;;8.52;4.72;;;;;;;14.44;63.29;100182.34;5052170;28;20111;-80
2021/10/08 05:59:34;;;;;;;12.25;5.85;;;;;;;14.34;63.23;100181.78;5065062;28;20039;-80
2021/10/08 06:01:59;;;;;;;9.93;4.20;;;;;;;14.47;63.31;100192.59;5072016;28;20062;-80
2021/10/08 06:04:24;;;;;;;9.52;4.53;;;;;;;14.52;63.25;100206.97;5072090;28;20089;-79
2021/10/08 06:06:50;;;;;;;10.60;7.35;;;;;;;14.52;63.16;100217.59;5071810;28;20032;-80
2021/10/08 06:09:15;;;;;;;10.82;5.68;;;;;;;13.80;63.13;100095.34;5071581;28;20516;-79
2021/10/08 06:11:40;;;;;;;15.18;7.95;;;;;;;14.54;63.08;100223.56;5058671;28;20031;-79
2021/10/08 06:14:06;;;;;;;13.35;7.10;;;;;;;14.44;63.18;100198.28;5051490;28;20078;-80
2021/10/08 06:16:31;;;;;;;10.50;6.28;;;;;;;14.58;63.28;100224.00;5052083;28;20086;-80
2021/10/08 06:18:57;;;;;;;11.20;5.80;;;;;;;14.54;62.77;100215.56;5051677;28;20035;-79
2021/10/08 06:21:23;;;;;;;11.13;6.63;;;;;;;14.39;63.00;100200.66;5051508;28;20477;-79
2021/10/08 06:23:49;;;;;;;14.35;6.22;;;;;;;14.63;62.97;100246.34;5051541;28;20126;-75
2021/10/08 06:26:14;;;;;;;12.25;5.90;;;;;;;14.53;62.72;100223.75;5051458;28;20033;-75
2021/10/08 06:28:40;;;;;;;9.93;6.13;;;;;;;14.57;62.58;100228.50;5050948;28;20028;-75
2021/10/08 06:31:06;;;;;;;10.93;5.90;;;;;;;14.53;62.78;100237.84;5050963;28;20025;-76
2021/10/08 06:33:31;;;;;;;10.63;6.90;;;;;;;14.57;62.43;100230.31;5051178;28;20028;-75
2021/10/08 06:35:57;;;;;;;11.50;6.75;;;;;;;14.54;62.56;100231.53;5050768;28;20471;-76
2021/10/08 06:38:22;;;;;;;14.00;6.07;;;;;;;14.28;62.67;100189.50;5050991;28;20455;-75
2021/10/08 06:40:48;;;;;;;10.50;6.68;;;;;;;14.54;62.49;100226.22;5051014;28;20064;-75
2021/10/08 06:43:13;;;;;;;14.18;7.07;;;;;;;14.53;62.32;100229.06;5051189;28;20059;-75
2021/10/08 06:45:38;;;;;;;11.90;8.00;;;;;;;14.53;62.47;100219.25;5049845;28;20654;-75
2021/10/08 06:48:05;;;;;;;9.20;6.03;;;;;;;13.52;62.30;100051.91;5060552;28;20088;-75
2021/10/08 06:50:30;;;;;;;8.30;5.97;;;;;;;14.61;62.22;100200.53;5068520;28;20021;-75
2021/10/08 06:52:56;;;;;;;13.32;7.38;;;;;;;14.61;62.43;100210.34;5068959;28;20097;-75
2021/10/08 06:55:22;;;;;;;11.20;6.18;;;;;;;14.61;62.07;100197.88;5069182;28;20028;-75
2021/10/08 06:57:47;;;;;;;12.32;6.47;;;;;;;14.56;62.21;100192.31;5064936;28;20458;-75
2021/10/08 07:00:13;;;;;;;14.95;7.00;;;;;;;14.55;62.20;100193.31;5050851;28;20088;-76
2021/10/08 07:02:52;;;;;;;20.63;10.50;;;;;;;14.51;62.26;100196.53;5060426;28;20094;-75
2021/10/08 07:05:19;;;;;;;12.88;6.85;;;;;;;14.56;62.23;100194.97;5061865;28;20020;-75
2021/10/08 07:07:45;;;;;;;18.63;9.48;;;;;;;14.29;62.43;100153.13;5063049;28;20043;-75
2021/10/08 07:10:12;;;;;;;14.63;6.85;;;;;;;14.56;62.39;100207.41;5064616;28;20405;-75
2021/10/08 07:12:37;;;;;;;17.70;8.02;;;;;;;14.62;62.02;100218.13;5055753;28;20465;-76
2021/10/08 07:15:06;;;;;;;14.52;7.18;;;;;;;14.01;62.10;100129.09;5060189;28;20107;-76
2021/10/08 07:17:32;;;;;;;12.38;8.00;;;;;;;14.54;62.24;100228.03;5057089;28;20028;-75
2021/10/08 07:19:57;;;;;;;16.70;8.00;;;;;;;14.52;62.33;100238.84;5064564;28;20406;-76
2021/10/08 07:22:23;;;;;;;14.85;7.60;;;;;;;14.45;62.19;100222.00;5063235;28;20109;-76
2021/10/08 07:24:49;;;;;;;13.68;7.43;;;;;;;14.55;62.33;100219.06;5067448;28;20037;-76
2021/10/08 07:27:15;;;;;;;14.48;7.32;;;;;;;14.31;62.01;100189.13;5066151;28;20111;-76
2021/10/08 07:29:41;;;;;;;12.30;6.25;;;;;;;14.45;61.91;100213.22;5070090;28;20024;-76
2021/10/08 07:32:06;;;;;;;16.80;7.68;;;;;;;14.60;61.72;100229.94;5069941;28;20035;-76
2021/10/08 07:34:32;;;;;;;14.25;8.25;;;;;;;14.59;62.01;100229.13;5067385;28;20055;-75
2021/10/08 07:36:57;;;;;;;15.02;8.18;;;;;;;14.41;61.99;100199.47;5057399;28;20109;-75
2021/10/08 07:39:23;;;;;;;15.70;9.68;;;;;;;14.54;61.88;100228.03;5069309;28;20071;-76
2021/10/08 07:41:49;;;;;;;16.83;9.02;;;;;;;14.49;61.70;100212.66;5071809;28;20459;-75
2021/10/08 07:44:15;;;;;;;22.70;8.98;;;;;;;14.25;61.66;100179.25;5065561;28;20027;-76
2021/10/08 07:46:40;;;;;;;20.88;11.48;;;;;;;14.40;61.53;100212.94;5072667;28;20024;-76
2021/10/08 07:49:06;;;;;;;15.00;8.93;;;;;;;14.31;61.82;100183.00;5071959;28;20549;-75
2021/10/08 07:51:32;;;;;;;17.02;8.10;;;;;;;14.48;61.90;100218.16;5070194;28;20408;-76
2021/10/08 07:53:58;;;;;;;19.27;8.10;;;;;;;14.57;62.15;100227.66;5066068;28;20028;-76
2021/10/08 07:56:24;;;;;;;19.35;10.05;;;;;;;14.25;62.60;100162.50;5069820;28;20386;-75
2021/10/08 07:58:49;;;;;;;19.27;10.15;;;;;;;14.54;62.70;100220.06;5064758;28;20031;-75
2021/10/08 08:01:15;;;;;;;18.45;10.10;;;;;;;14.50;63.00;100218.81;5073299;28;20028;-76
2021/10/08 08:03:40;;;;;;;15.98;8.90;;;;;;;14.51;63.09;100226.59;5072602;28;20551;-75
2021/10/08 08:06:06;;;;;;;14.82;8.95;;;;;;;14.49;63.08;100228.59;5071880;28;20112;-76
2021/10/08 08:08:31;;;;;;;15.27;8.07;;;;;;;14.27;63.01;100181.72;5068248;28;20062;-75
2021/10/08 08:10:57;;;;;;;21.55;9.90;;;;;;;14.42;63.33;100203.78;5066399;28;20107;-75
2021/10/08 08:13:22;;;;;;;23.02;11.23;;;;;;;14.47;63.67;100208.53;5057852;28;20104;-75
2021/10/08 08:15:48;;;;;;;20.17;10.50;;;;;;;13.58;63.54;100080.34;5069019;28;20032;-75
2021/10/08 08:18:14;;;;;;;21.67;10.10;;;;;;;14.46;63.60;100249.41;5061135;28;20466;-75
2021/10/08 08:20:39;;;;;;;20.88;10.35;;;;;;;14.47;64.01;100225.31;5070322;28;20016;-75
2021/10/08 08:23:05;;;;;;;18.67;11.02;;;;;;;14.43;63.82;100210.75;5070614;28;20071;-74
2021/10/08 08:25:31;;;;;;;21.75;11.68;;;;;;;14.04;64.17;100141.16;5070981;28;20025;-74
2021/10/08 08:27:56;;;;;;;18.52;12.65;;;;;;;14.05;64.17;100140.97;5065455;28;20123;-75
2021/10/08 08:30:22;;;;;;;24.52;12.43;;;;;;;14.39;64.22;100201.47;5069142;28;20085;-78
2021/10/08 08:32:47;;;;;;;21.75;11.82;;;;;;;14.39;64.40;100198.81;5072976;28;20028;-81
2021/10/08 08:35:13;;;;;;;22.02;10.98;;;;;;;14.13;64.46;100156.84;5071447;28;20037;-80
2021/10/08 08:37:38;;;;;;;21.25;11.68;;;;;;;14.38;64.70;100207.78;5071292;28;20551;-80
2021/10/08 08:40:06;;;;;;;20.77;10.30;;;;;;;14.39;64.72;100204.13;5069326;28;20036;-79
2021/10/08 08:42:32;;;;;;;21.00;11.55;;;;;;;14.15;64.55;100165.44;5072593;28;20024;-80
2021/10/08 08:44:58;;;;;;;21.42;11.90;;;;;;;14.34;64.59;100209.19;5072527;28;20102;-80
2021/10/08 08:47:25;;;;;;;25.90;14.70;;;;;;;13.76;64.60;100109.16;5061256;28;20051;-80
2021/10/08 08:49:51;;;;;;;33.85;26.58;;;;;;;14.46;64.65;100209.56;5065916;28;20134;-80
2021/10/08 08:52:18;;;;;;;26.95;20.10;;;;;;;14.27;64.65;100179.06;5065514;28;20643;-80
2021/10/08 08:54:44;;;;;;;24.27;17.05;;;;;;;14.49;64.98;100214.50;5068846;28;20119;-80
2021/10/08 08:57:16;;;;;;;22.30;12.52;;;;;;;14.46;64.95;100205.06;5069088;28;20126;-80
2021/10/08 09:00:00;;;;;;;24.77;12.65;;;;;;;14.44;64.96;100199.13;5071974;28;20021;-80
2021/10/08 09:02:27;;;;;;;24.30;12.70;;;;;;;14.50;64.85;100192.22;5071060;28;20042;-80
2021/10/08 09:04:53;;;;;;;28.15;13.30;;;;;;;14.52;64.73;100192.88;5067650;28;20028;-80
2021/10/08 09:07:19;;;;;;;24.73;12.15;;;;;;;14.48;64.74;100195.06;5070459;28;20412;-80
2021/10/08 09:09:45;;;;;;;22.10;11.27;;;;;;;14.44;64.83;100207.09;5064834;28;20036;-80
2021/10/08 09:12:11;;;;;;;22.77;12.30;;;;;;;14.48;64.97;100196.91;5071166;28;20371;-81
2021/10/08 09:14:36;;;;;;;25.15;11.57;;;;;;;14.35;64.87;100167.50;5060108;28;20076;-80
2021/10/08 09:17:06;;;;;;;20.88;11.70;;;;;;;14.47;64.96;100190.78;5063955;28;20020;-80
2021/10/08 09:19:56;;;;;;;23.35;11.77;;;;;;;14.59;65.03;100207.88;5068905;28;20035;-79
2021/10/08 09:22:29;;;;;;;18.95;10.48;;;;;;;14.59;64.91;100202.56;5062926;28;20031;-80
2021/10/08 09:25:35;;;;;;;21.73;12.05;;;;;;;14.70;65.10;100195.09;5064836;28;20492;-74
2021/10/08 09:28:04;;;;;;;19.02;9.68;;;;;;;14.73;64.58;100179.59;5054066;28;20099;-75
2021/10/08 09:30:50;;;;;;;22.52;11.82;;;;;;;14.82;64.52;100190.94;5065880;28;20024;-75
2021/10/08 09:33:20;;;;;;;23.60;13.07;;;;;;;14.81;64.53;100189.28;5069628;28;20120;-74
2021/10/08 09:35:53;;;;;;;23.38;14.20;;;;;;;14.82;64.85;100198.91;5065974;28;20123;-74
2021/10/08 09:38:18;;;;;;;20.85;11.20;;;;;;;14.84;64.77;100204.84;5057319;28;20065;-74
2021/10/08 09:40:55;;;;;;;20.50;11.30;;;;;;;14.78;64.77;100194.97;5069793;28;20028;-75
2021/10/08 09:43:24;;;;;;;26.48;12.95;;;;;;;14.76;64.80;100211.13;5067697;28;20033;-74
2021/10/08 09:45:55;;;;;;;20.98;10.88;;;;;;;14.60;64.87;100182.94;5064246;28;20138;-74
2021/10/08 09:48:23;;;;;;;17.83;10.70;;;;;;;14.75;64.93;100198.00;5061949;28;20420;-74
2021/10/08 09:51:27;;;;;;;20.70;10.57;;;;;;;14.35;65.30;100135.63;5068754;28;20028;-74
2021/10/08 09:53:57;;;;;;;22.92;9.63;;;;;;;14.86;64.58;100245.38;5054355;28;20048;-74
2021/10/08 09:56:39;;;;;;;17.23;8.70;;;;;;;14.80;64.90;100212.38;5090370;28;20088;-74
2021/10/08 09:59:10;;;;;;;21.38;10.20;;;;;;;14.83;64.81;100204.03;5076790;28;20077;-75
2021/10/08 10:01:37;;;;;;;21.08;7.82;;;;;;;14.34;65.16;100139.28;5080494;28;20036;-74
2021/10/08 10:04:05;;;;;;;17.73;8.50;;;;;;;14.81;65.06;100211.38;5082384;28;20441;-74
2021/10/08 10:06:32;;;;;;;19.95;10.75;;;;;;;14.86;65.24;100209.00;5071792;28;20024;-75
2021/10/08 10:08:58;;;;;;;18.98;9.05;;;;;;;14.88;65.06;100217.59;5080416;28;20039;-75
2021/10/08 10:11:25;;;;;;;19.75;9.02;;;;;;;14.87;64.58;100223.94;5079736;28;20032;-74
2021/10/08 10:13:59;;;;;;;19.77;8.93;;;;;;;14.79;64.86;100212.56;5088398;28;20533;-74
2021/10/08 10:16:27;;;;;;;18.60;8.88;;;;;;;14.71;65.24;100192.25;5089365;28;20039;-75
2021/10/08 10:18:55;;;;;;;18.15;8.70;;;;;;;14.73;64.75;100206.16;5089476;28;20024;-75
2021/10/08 10:21:26;;;;;;;17.48;8.57;;;;;;;14.83;64.85;100233.28;5089178;28;20032;-75
2021/10/08 10:23:53;;;;;;;14.43;7.10;;;;;;;14.82;64.84;100230.81;5087339;28;20039;-75
2021/10/08 10:26:20;;;;;;;19.55;7.40;;;;;;;14.84;65.26;100229.59;5068514;28;20115;-74
2021/10/08 10:28:46;;;;;;;24.75;9.57;;;;;;;14.86;65.04;100237.38;5068655;28;20474;-75
2021/10/08 10:31:13;;;;;;;20.33;8.00;;;;;;;14.82;65.02;100241.44;5074702;28;20032;-74
2021/10/08 10:33:39;;;;;;;25.75;9.45;;;;;;;14.80;65.05;100233.66;5084559;28;20028;-74
2021/10/08 10:36:06;;;;;;;24.98;10.90;;;;;;;14.77;64.97;100235.84;5090286;28;20036;-75
2021/10/08 10:38:37;;;;;;;28.52;11.68;;;;;;;14.76;64.89;100229.72;5070862;28;20021;-75
2021/10/08 10:41:09;;;;;;;27.10;12.32;;;;;;;14.23;64.84;100145.91;5070993;28;20067;-75
2021/10/08 10:43:44;;;;;;;31.00;13.05;;;;;;;14.16;64.93;100126.44;5071020;28;20109;-73
2021/10/08 10:46:28;;;;;;;24.83;13.05;;;;;;;14.69;65.34;100206.75;5070898;28;20504;-74
2021/10/08 10:52:01;;;;;;;26.70;11.43;;;;;;;14.65;65.93;100189.53;5073908;28;20060;-76
2021/10/08 10:54:40;;;;;;;25.25;9.88;;;;;;;14.69;66.09;100177.50;5070888;28;20549;-76
2021/10/08 10:57:18;;;;;;;28.40;10.00;;;;;;;14.72;65.71;100169.97;5084106;28;20028;-76
2021/10/08 10:59:43;;;;;;;34.83;14.32;;;;;;;14.76;65.47;100163.25;5080287;28;20020;-76
2021/10/08 11:02:10;;;;;;;29.52;12.38;;;;;;;14.75;65.64;100150.16;5090919;28;20138;-77
2021/10/08 11:04:40;;;;;;;22.02;9.95;;;;;;;14.69;65.86;100153.59;5074540;28;20616;-75
2021/10/08 11:07:14;;;;;;;26.67;10.32;;;;;;;13.65;65.63;99975.94;5077513;28;20028;-76
2021/10/08 11:09:41;;;;;;;19.20;8.88;;;;;;;14.48;65.60;100109.22;5090733;28;20028;-76
2021/10/08 11:12:40;;;;;;;24.27;9.63;;;;;;;14.57;66.18;100134.66;5090865;28;20024;-76
2021/10/08 11:15:32;;;;;;;27.20;9.32;;;;;;;14.50;66.50;100134.59;5088319;28;20031;-76
2021/10/08 11:17:58;;;;;;;;;;;;;;;14.38;66.79;100128.09;5072872;28;20033;-76
2021/10/08 11:20:30;;;;;;;24.52;8.43;;;;;;;14.48;66.01;100131.31;5084254;28;19916;-75
2021/10/08 11:22:57;;;;;;;20.23;9.23;;;;;;;14.49;65.78;100124.97;5083512;28;20028;-76
2021/10/08 11:25:24;;;;;;;26.10;9.35;;;;;;;14.52;66.02;100118.47;5074525;28;20113;-76
2021/10/08 11:27:50;;;;;;;23.25;8.40;;;;;;;14.57;66.19;100116.88;5079511;28;20020;-76